sensor_id;sensor_type;location;lat;lon;timestamp;P1;durP1;ratioP1;P2;durP2;ratioP2
37845;SDS011;23686;49.828;8.702;2022-11-11T00:02:22;22.73;;;12.10;;
37845;SDS011;23686;49.828;8.702;2022-11-11T00:04:48;20.48;;;12.10;;
37845;SDS011;23686;49.828;8.702;2022-11-11T00:07:13;17.90;;;11.13;;
37845;SDS011;23686;49.828;8.702;2022-11-11T00:09:39;18.98;;;10.50;;
37845;SDS011;23686;49.828;8.702;2022-11-11T00:12:04;15.40;;;10.35;;
37845;SDS011;23686;49.828;8.702;2022-11-11T00:14:30;13.02;;;8.93;;
37845;SDS011;23686;49.828;8.702;2022-11-11T00:16:55;12.77;;;8.48;;
37845;SDS011;23686;49.828;8.702;2022-11-11T00:19:40;17.23;;;8.93;;
37845;SDS011;23686;49.828;8.702;2022-11-11T00:22:24;15.43;;;9.93;;
37845;SDS011;23686;49.828;8.702;2022-11-11T00:25:11;16.20;;;8.65;;
37845;SDS011;23686;49.828;8.702;2022-11-11T00:27:39;11.60;;;8.05;;
37845;SDS011;23686;49.828;8.702;2022-11-11T00:30:04;11.10;;;7.75;;
37845;SDS011;23686;49.828;8.702;2022-11-11T00:32:31;12.55;;;7.13;;
37845;SDS011;23686;49.828;8.702;2022-11-11T00:34:57;11.35;;;6.50;;
37845;SDS011;23686;49.828;8.702;2022-11-11T00:37:43;11.85;;;7.00;;
37845;SDS011;23686;49.828;8.702;2022-11-11T00:40:11;9.73;;;5.57;;
37845;SDS011;23686;49.828;8.702;2022-11-11T00:42:37;12.00;;;6.03;;
37845;SDS011;23686;49.828;8.702;2022-11-11T00:45:03;10.95;;;7.10;;
37845;SDS011;23686;49.828;8.702;2022-11-11T00:47:30;12.02;;;7.47;;
37845;SDS011;23686;49.828;8.702;2022-11-11T00:50:15;13.73;;;9.43;;
37845;SDS011;23686;49.828;8.702;2022-11-11T00:53:02;15.23;;;8.40;;
37845;SDS011;23686;49.828;8.702;2022-11-11T00:55:30;13.18;;;8.85;;
37845;SDS011;23686;49.828;8.702;2022-11-11T00:57:55;13.93;;;8.52;;
37845;SDS011;23686;49.828;8.702;2022-11-11T01:00:21;13.90;;;9.00;;
37845;SDS011;23686;49.828;8.702;2022-11-11T01:02:46;15.48;;;9.43;;
37845;SDS011;23686;49.828;8.702;2022-11-11T01:05:12;13.60;;;9.50;;
37845;SDS011;23686;49.828;8.702;2022-11-11T01:07:37;14.18;;;9.43;;
37845;SDS011;23686;49.828;8.702;2022-11-11T01:10:03;18.08;;;9.98;;
37845;SDS011;23686;49.828;8.702;2022-11-11T01:12:28;15.30;;;8.80;;
37845;SDS011;23686;49.828;8.702;2022-11-11T01:14:54;14.60;;;8.57;;
37845;SDS011;23686;49.828;8.702;2022-11-11T01:17:19;11.18;;;8.05;;
37845;SDS011;23686;49.828;8.702;2022-11-11T01:19:45;14.82;;;8.32;;
37845;SDS011;23686;49.828;8.702;2022-11-11T01:22:10;13.20;;;7.63;;
37845;SDS011;23686;49.828;8.702;2022-11-11T01:24:36;10.38;;;7.70;;
37845;SDS011;23686;49.828;8.702;2022-11-11T01:27:02;11.35;;;7.00;;
37845;SDS011;23686;49.828;8.702;2022-11-11T01:29:28;10.15;;;6.80;;
37845;SDS011;23686;49.828;8.702;2022-11-11T01:31:53;10.85;;;7.93;;
37845;SDS011;23686;49.828;8.702;2022-11-11T01:34:19;19.05;;;8.60;;
37845;SDS011;23686;49.828;8.702;2022-11-11T01:36:44;13.25;;;9.40;;
37845;SDS011;23686;49.828;8.702;2022-11-11T01:39:10;12.73;;;8.43;;
37845;SDS011;23686;49.828;8.702;2022-11-11T01:41:36;14.88;;;7.53;;
37845;SDS011;23686;49.828;8.702;2022-11-11T01:52:09;13.93;;;8.07;;
37845;SDS011;23686;49.828;8.702;2022-11-11T02:00:13;11.90;;;7.15;;
37845;SDS011;23686;49.828;8.702;2022-11-11T02:02:46;14.20;;;7.88;;
37845;SDS011;23686;49.828;8.702;2022-11-11T02:05:17;13.43;;;8.05;;
37845;SDS011;23686;49.828;8.702;2022-11-11T02:08:04;11.67;;;7.27;;
37845;SDS011;23686;49.828;8.702;2022-11-11T02:10:43;10.60;;;6.97;;
37845;SDS011;23686;49.828;8.702;2022-11-11T02:13:11;9.65;;;7.13;;
37845;SDS011;23686;49.828;8.702;2022-11-11T02:15:57;11.07;;;7.72;;
37845;SDS011;23686;49.828;8.702;2022-11-11T02:18:23;13.27;;;8.02;;
37845;SDS011;23686;49.828;8.702;2022-11-11T02:20:49;12.77;;;7.57;;
37845;SDS011;23686;49.828;8.702;2022-11-11T02:23:21;11.18;;;8.15;;
37845;SDS011;23686;49.828;8.702;2022-11-11T02:25:57;14.13;;;8.13;;
37845;SDS011;23686;49.828;8.702;2022-11-11T02:28:25;10.23;;;7.57;;
37845;SDS011;23686;49.828;8.702;2022-11-11T02:30:51;13.43;;;7.97;;
37845;SDS011;23686;49.828;8.702;2022-11-11T02:33:17;12.52;;;9.32;;
37845;SDS011;23686;49.828;8.702;2022-11-11T02:35:44;16.73;;;7.13;;
37845;SDS011;23686;49.828;8.702;2022-11-11T02:38:21;14.23;;;7.72;;
37845;SDS011;23686;49.828;8.702;2022-11-11T02:40:49;16.60;;;8.13;;
37845;SDS011;23686;49.828;8.702;2022-11-11T02:43:33;14.25;;;7.70;;
37845;SDS011;23686;49.828;8.702;2022-11-11T02:45:59;11.30;;;7.75;;
37845;SDS011;23686;49.828;8.702;2022-11-11T02:48:26;12.17;;;8.30;;
37845;SDS011;23686;49.828;8.702;2022-11-11T02:50:52;12.13;;;6.90;;
37845;SDS011;23686;49.828;8.702;2022-11-11T02:53:18;14.35;;;7.68;;
37845;SDS011;23686;49.828;8.702;2022-11-11T02:55:44;15.77;;;7.07;;
37845;SDS011;23686;49.828;8.702;2022-11-11T02:58:10;10.25;;;7.15;;
37845;SDS011;23686;49.828;8.702;2022-11-11T03:00:36;9.27;;;6.80;;
37845;SDS011;23686;49.828;8.702;2022-11-11T03:03:02;11.38;;;6.80;;
37845;SDS011;23686;49.828;8.702;2022-11-11T03:05:27;14.23;;;6.80;;
37845;SDS011;23686;49.828;8.702;2022-11-11T03:07:53;12.82;;;7.90;;
37845;SDS011;23686;49.828;8.702;2022-11-11T03:10:18;11.20;;;6.35;;
37845;SDS011;23686;49.828;8.702;2022-11-11T03:12:44;8.90;;;6.72;;
37845;SDS011;23686;49.828;8.702;2022-11-11T03:15:09;12.38;;;7.68;;
37845;SDS011;23686;49.828;8.702;2022-11-11T03:17:35;9.15;;;6.35;;
37845;SDS011;23686;49.828;8.702;2022-11-11T03:20:10;13.50;;;7.60;;
37845;SDS011;23686;49.828;8.702;2022-11-11T03:25:39;8.85;;;7.03;;
37845;SDS011;23686;49.828;8.702;2022-11-11T03:28:08;10.93;;;7.35;;
37845;SDS011;23686;49.828;8.702;2022-11-11T03:30:39;9.90;;;7.25;;
37845;SDS011;23686;49.828;8.702;2022-11-11T03:33:07;11.65;;;6.63;;
37845;SDS011;23686;49.828;8.702;2022-11-11T03:35:33;9.93;;;7.15;;
37845;SDS011;23686;49.828;8.702;2022-11-11T03:37:59;12.35;;;7.43;;
37845;SDS011;23686;49.828;8.702;2022-11-11T03:40:47;11.05;;;6.88;;
37845;SDS011;23686;49.828;8.702;2022-11-11T03:43:15;13.38;;;7.13;;
37845;SDS011;23686;49.828;8.702;2022-11-11T03:45:42;9.20;;;6.63;;
37845;SDS011;23686;49.828;8.702;2022-11-11T03:48:08;8.80;;;6.97;;
37845;SDS011;23686;49.828;8.702;2022-11-11T03:50:34;9.65;;;6.75;;
37845;SDS011;23686;49.828;8.702;2022-11-11T03:53:00;13.07;;;7.05;;
37845;SDS011;23686;49.828;8.702;2022-11-11T03:55:26;9.23;;;6.28;;
37845;SDS011;23686;49.828;8.702;2022-11-11T03:57:52;12.63;;;6.20;;
37845;SDS011;23686;49.828;8.702;2022-11-11T04:00:19;8.13;;;6.40;;
37845;SDS011;23686;49.828;8.702;2022-11-11T04:02:47;9.77;;;6.47;;
37845;SDS011;23686;49.828;8.702;2022-11-11T04:05:32;11.02;;;6.82;;
37845;SDS011;23686;49.828;8.702;2022-11-11T04:08:16;10.32;;;6.60;;
37845;SDS011;23686;49.828;8.702;2022-11-11T04:11:06;11.98;;;7.03;;
37845;SDS011;23686;49.828;8.702;2022-11-11T04:13:36;9.82;;;6.50;;
37845;SDS011;23686;49.828;8.702;2022-11-11T04:16:21;9.23;;;6.45;;
37845;SDS011;23686;49.828;8.702;2022-11-11T04:18:47;13.88;;;6.90;;
37845;SDS011;23686;49.828;8.702;2022-11-11T04:21:31;10.77;;;6.80;;
37845;SDS011;23686;49.828;8.702;2022-11-11T04:24:16;8.38;;;6.10;;
37845;SDS011;23686;49.828;8.702;2022-11-11T04:27:03;10.32;;;6.13;;
37845;SDS011;23686;49.828;8.702;2022-11-11T04:29:33;11.25;;;6.55;;
37845;SDS011;23686;49.828;8.702;2022-11-11T04:31:59;10.10;;;6.15;;
37845;SDS011;23686;49.828;8.702;2022-11-11T04:34:48;8.70;;;6.15;;
37845;SDS011;23686;49.828;8.702;2022-11-11T04:37:16;7.63;;;5.95;;
37845;SDS011;23686;49.828;8.702;2022-11-11T04:39:42;11.18;;;6.90;;
37845;SDS011;23686;49.828;8.702;2022-11-11T04:42:26;8.43;;;6.35;;
37845;SDS011;23686;49.828;8.702;2022-11-11T04:44:53;9.93;;;6.72;;
37845;SDS011;23686;49.828;8.702;2022-11-11T04:47:37;10.88;;;6.68;;
37845;SDS011;23686;49.828;8.702;2022-11-11T04:52:41;12.98;;;6.85;;
37845;SDS011;23686;49.828;8.702;2022-11-11T04:55:07;9.10;;;6.40;;
37845;SDS011;23686;49.828;8.702;2022-11-11T04:57:51;11.35;;;7.22;;
37845;SDS011;23686;49.828;8.702;2022-11-11T05:00:17;11.52;;;6.85;;
37845;SDS011;23686;49.828;8.702;2022-11-11T05:02:43;11.27;;;6.38;;
37845;SDS011;23686;49.828;8.702;2022-11-11T05:05:48;12.88;;;6.38;;
37845;SDS011;23686;49.828;8.702;2022-11-11T05:08:43;13.13;;;6.57;;
37845;SDS011;23686;49.828;8.702;2022-11-11T05:11:27;12.18;;;6.35;;
37845;SDS011;23686;49.828;8.702;2022-11-11T05:13:54;9.40;;;6.07;;
37845;SDS011;23686;49.828;8.702;2022-11-11T05:16:40;13.52;;;6.03;;
37845;SDS011;23686;49.828;8.702;2022-11-11T05:19:27;11.13;;;6.35;;
37845;SDS011;23686;49.828;8.702;2022-11-11T05:24:39;11.30;;;6.50;;
37845;SDS011;23686;49.828;8.702;2022-11-11T05:27:24;9.60;;;6.53;;
37845;SDS011;23686;49.828;8.702;2022-11-11T05:29:50;11.05;;;6.65;;
37845;SDS011;23686;49.828;8.702;2022-11-11T05:32:17;9.65;;;6.60;;
37845;SDS011;23686;49.828;8.702;2022-11-11T05:34:44;12.88;;;7.38;;
37845;SDS011;23686;49.828;8.702;2022-11-11T05:37:10;13.00;;;6.00;;
37845;SDS011;23686;49.828;8.702;2022-11-11T05:39:35;11.40;;;6.68;;
37845;SDS011;23686;49.828;8.702;2022-11-11T05:42:01;10.13;;;6.32;;
37845;SDS011;23686;49.828;8.702;2022-11-11T05:44:27;12.13;;;6.85;;
37845;SDS011;23686;49.828;8.702;2022-11-11T05:46:52;11.70;;;6.72;;
37845;SDS011;23686;49.828;8.702;2022-11-11T05:49:18;13.65;;;6.65;;
37845;SDS011;23686;49.828;8.702;2022-11-11T05:51:44;12.82;;;7.20;;
37845;SDS011;23686;49.828;8.702;2022-11-11T05:54:10;12.52;;;7.25;;
37845;SDS011;23686;49.828;8.702;2022-11-11T05:56:37;11.68;;;7.00;;
37845;SDS011;23686;49.828;8.702;2022-11-11T05:59:03;13.15;;;7.00;;
37845;SDS011;23686;49.828;8.702;2022-11-11T06:01:29;9.70;;;6.38;;
37845;SDS011;23686;49.828;8.702;2022-11-11T06:03:55;9.50;;;6.13;;
37845;SDS011;23686;49.828;8.702;2022-11-11T06:06:20;9.32;;;6.15;;
37845;SDS011;23686;49.828;8.702;2022-11-11T06:08:46;10.57;;;6.65;;
37845;SDS011;23686;49.828;8.702;2022-11-11T06:11:12;9.63;;;6.88;;
37845;SDS011;23686;49.828;8.702;2022-11-11T06:13:37;16.05;;;9.77;;
37845;SDS011;23686;49.828;8.702;2022-11-11T06:16:03;20.38;;;13.00;;
37845;SDS011;23686;49.828;8.702;2022-11-11T06:18:29;21.83;;;12.02;;
37845;SDS011;23686;49.828;8.702;2022-11-11T06:20:54;28.02;;;14.05;;
37845;SDS011;23686;49.828;8.702;2022-11-11T06:23:21;39.55;;;15.80;;
37845;SDS011;23686;49.828;8.702;2022-11-11T06:25:47;36.92;;;15.27;;
37845;SDS011;23686;49.828;8.702;2022-11-11T06:28:32;49.20;;;13.82;;
37845;SDS011;23686;49.828;8.702;2022-11-11T06:30:58;41.22;;;13.38;;
37845;SDS011;23686;49.828;8.702;2022-11-11T06:33:23;38.00;;;13.00;;
37845;SDS011;23686;49.828;8.702;2022-11-11T06:35:49;31.27;;;12.10;;
37845;SDS011;23686;49.828;8.702;2022-11-11T06:38:15;38.78;;;12.45;;
37845;SDS011;23686;49.828;8.702;2022-11-11T06:40:41;39.22;;;11.93;;
37845;SDS011;23686;49.828;8.702;2022-11-11T06:43:07;43.85;;;12.00;;
37845;SDS011;23686;49.828;8.702;2022-11-11T06:45:33;35.90;;;12.85;;
37845;SDS011;23686;49.828;8.702;2022-11-11T06:48:00;56.38;;;12.38;;
37845;SDS011;23686;49.828;8.702;2022-11-11T06:50:26;47.63;;;12.57;;
37845;SDS011;23686;49.828;8.702;2022-11-11T06:52:53;53.72;;;12.07;;
37845;SDS011;23686;49.828;8.702;2022-11-11T06:55:19;39.08;;;13.20;;
37845;SDS011;23686;49.828;8.702;2022-11-11T06:57:44;58.15;;;13.52;;
37845;SDS011;23686;49.828;8.702;2022-11-11T07:00:10;42.90;;;13.23;;
37845;SDS011;23686;49.828;8.702;2022-11-11T07:02:36;43.80;;;13.32;;
37845;SDS011;23686;49.828;8.702;2022-11-11T07:05:01;98.97;;;14.95;;
37845;SDS011;23686;49.828;8.702;2022-11-11T07:07:27;65.40;;;13.43;;
37845;SDS011;23686;49.828;8.702;2022-11-11T07:09:53;80.20;;;13.40;;
37845;SDS011;23686;49.828;8.702;2022-11-11T07:12:19;89.47;;;13.32;;
37845;SDS011;23686;49.828;8.702;2022-11-11T07:14:46;73.38;;;13.43;;
37845;SDS011;23686;49.828;8.702;2022-11-11T07:17:11;68.40;;;13.98;;
37845;SDS011;23686;49.828;8.702;2022-11-11T07:19:37;76.78;;;14.10;;
37845;SDS011;23686;49.828;8.702;2022-11-11T07:22:03;58.80;;;13.35;;
37845;SDS011;23686;49.828;8.702;2022-11-11T07:24:29;93.38;;;13.98;;
37845;SDS011;23686;49.828;8.702;2022-11-11T07:26:54;46.63;;;11.32;;
37845;SDS011;23686;49.828;8.702;2022-11-11T07:29:20;57.50;;;11.80;;
37845;SDS011;23686;49.828;8.702;2022-11-11T07:31:46;58.47;;;11.38;;
37845;SDS011;23686;49.828;8.702;2022-11-11T07:34:11;73.75;;;12.60;;
37845;SDS011;23686;49.828;8.702;2022-11-11T07:36:37;75.05;;;12.43;;
37845;SDS011;23686;49.828;8.702;2022-11-11T07:39:02;88.25;;;10.32;;
37845;SDS011;23686;49.828;8.702;2022-11-11T07:41:28;88.55;;;10.38;;
37845;SDS011;23686;49.828;8.702;2022-11-11T07:43:54;83.95;;;10.48;;
37845;SDS011;23686;49.828;8.702;2022-11-11T07:46:19;100.60;;;11.88;;
37845;SDS011;23686;49.828;8.702;2022-11-11T07:48:45;82.57;;;9.60;;
37845;SDS011;23686;49.828;8.702;2022-11-11T07:51:10;97.65;;;11.05;;
37845;SDS011;23686;49.828;8.702;2022-11-11T07:53:36;61.22;;;12.70;;
37845;SDS011;23686;49.828;8.702;2022-11-11T07:56:01;75.72;;;10.48;;
37845;SDS011;23686;49.828;8.702;2022-11-11T07:58:27;103.97;;;11.88;;
37845;SDS011;23686;49.828;8.702;2022-11-11T08:00:52;90.30;;;11.63;;
37845;SDS011;23686;49.828;8.702;2022-11-11T08:03:18;94.80;;;12.90;;
37845;SDS011;23686;49.828;8.702;2022-11-11T08:05:43;65.70;;;11.98;;
37845;SDS011;23686;49.828;8.702;2022-11-11T08:08:09;61.25;;;11.77;;
37845;SDS011;23686;49.828;8.702;2022-11-11T08:10:35;61.08;;;12.25;;
37845;SDS011;23686;49.828;8.702;2022-11-11T08:13:01;57.78;;;11.95;;
37845;SDS011;23686;49.828;8.702;2022-11-11T08:15:46;71.80;;;13.13;;
37845;SDS011;23686;49.828;8.702;2022-11-11T08:18:12;62.15;;;13.23;;
37845;SDS011;23686;49.828;8.702;2022-11-11T08:20:37;75.30;;;13.32;;
37845;SDS011;23686;49.828;8.702;2022-11-11T08:23:03;80.72;;;19.77;;
37845;SDS011;23686;49.828;8.702;2022-11-11T08:25:29;125.65;;;44.85;;
37845;SDS011;23686;49.828;8.702;2022-11-11T08:27:59;58.92;;;12.60;;
37845;SDS011;23686;49.828;8.702;2022-11-11T08:30:26;82.45;;;13.38;;
37845;SDS011;23686;49.828;8.702;2022-11-11T08:33:02;64.40;;;12.60;;
37845;SDS011;23686;49.828;8.702;2022-11-11T08:35:29;41.25;;;12.27;;
37845;SDS011;23686;49.828;8.702;2022-11-11T08:37:55;42.13;;;12.10;;
37845;SDS011;23686;49.828;8.702;2022-11-11T08:40:25;33.40;;;12.23;;
37845;SDS011;23686;49.828;8.702;2022-11-11T08:42:54;31.05;;;11.15;;
37845;SDS011;23686;49.828;8.702;2022-11-11T08:45:21;31.33;;;11.55;;
37845;SDS011;23686;49.828;8.702;2022-11-11T08:47:46;27.33;;;10.85;;
37845;SDS011;23686;49.828;8.702;2022-11-11T08:50:12;28.77;;;12.70;;
37845;SDS011;23686;49.828;8.702;2022-11-11T08:52:38;44.08;;;12.20;;
37845;SDS011;23686;49.828;8.702;2022-11-11T08:55:13;43.80;;;12.32;;
37845;SDS011;23686;49.828;8.702;2022-11-11T08:57:39;33.20;;;12.65;;
37845;SDS011;23686;49.828;8.702;2022-11-11T09:00:05;26.60;;;13.60;;
37845;SDS011;23686;49.828;8.702;2022-11-11T09:02:31;36.55;;;11.93;;
37845;SDS011;23686;49.828;8.702;2022-11-11T09:04:56;36.97;;;11.32;;
37845;SDS011;23686;49.828;8.702;2022-11-11T09:07:22;36.70;;;12.52;;
37845;SDS011;23686;49.828;8.702;2022-11-11T09:09:48;46.03;;;13.02;;
37845;SDS011;23686;49.828;8.702;2022-11-11T09:12:13;59.25;;;13.68;;
37845;SDS011;23686;49.828;8.702;2022-11-11T09:14:39;82.20;;;13.80;;
37845;SDS011;23686;49.828;8.702;2022-11-11T09:17:04;44.17;;;13.18;;
37845;SDS011;23686;49.828;8.702;2022-11-11T09:19:30;41.33;;;13.07;;
37845;SDS011;23686;49.828;8.702;2022-11-11T09:21:56;42.13;;;12.63;;
37845;SDS011;23686;49.828;8.702;2022-11-11T09:24:21;44.28;;;13.45;;
37845;SDS011;23686;49.828;8.702;2022-11-11T09:26:47;30.85;;;12.95;;
37845;SDS011;23686;49.828;8.702;2022-11-11T09:29:14;35.17;;;13.23;;
37845;SDS011;23686;49.828;8.702;2022-11-11T09:31:40;41.15;;;12.55;;
37845;SDS011;23686;49.828;8.702;2022-11-11T09:34:05;44.17;;;13.57;;
37845;SDS011;23686;49.828;8.702;2022-11-11T09:36:31;36.22;;;13.40;;
37845;SDS011;23686;49.828;8.702;2022-11-11T09:38:57;46.85;;;14.55;;
37845;SDS011;23686;49.828;8.702;2022-11-11T09:44:37;51.63;;;13.50;;
37845;SDS011;23686;49.828;8.702;2022-11-11T09:47:30;55.78;;;14.20;;
37845;SDS011;23686;49.828;8.702;2022-11-11T09:50:15;35.28;;;13.30;;
37845;SDS011;23686;49.828;8.702;2022-11-11T09:52:46;34.00;;;14.18;;
37845;SDS011;23686;49.828;8.702;2022-11-11T09:56:00;32.88;;;14.27;;
37845;SDS011;23686;49.828;8.702;2022-11-11T09:58:43;29.90;;;13.10;;
37845;SDS011;23686;49.828;8.702;2022-11-11T10:01:36;41.08;;;12.98;;
37845;SDS011;23686;49.828;8.702;2022-11-11T10:07:05;17.52;;;11.02;;
37845;SDS011;23686;49.828;8.702;2022-11-11T10:09:40;23.75;;;11.60;;
37845;SDS011;23686;49.828;8.702;2022-11-11T10:12:14;27.20;;;12.75;;
37845;SDS011;23686;49.828;8.702;2022-11-11T10:14:41;23.60;;;13.13;;
37845;SDS011;23686;49.828;8.702;2022-11-11T10:20:29;27.02;;;14.82;;
37845;SDS011;23686;49.828;8.702;2022-11-11T10:23:14;26.63;;;14.52;;
37845;SDS011;23686;49.828;8.702;2022-11-11T10:25:42;25.15;;;14.00;;
37845;SDS011;23686;49.828;8.702;2022-11-11T10:28:18;31.55;;;13.98;;
37845;SDS011;23686;49.828;8.702;2022-11-11T10:30:46;27.55;;;13.68;;
37845;SDS011;23686;49.828;8.702;2022-11-11T10:33:34;28.73;;;14.00;;
37845;SDS011;23686;49.828;8.702;2022-11-11T10:36:05;21.63;;;13.40;;
37845;SDS011;23686;49.828;8.702;2022-11-11T10:38:43;23.85;;;14.75;;
37845;SDS011;23686;49.828;8.702;2022-11-11T10:41:33;24.33;;;14.15;;
37845;SDS011;23686;49.828;8.702;2022-11-11T10:49:56;28.70;;;13.65;;
37845;SDS011;23686;49.828;8.702;2022-11-11T10:52:32;22.30;;;12.90;;
37845;SDS011;23686;49.828;8.702;2022-11-11T11:00:13;23.63;;;14.82;;
37845;SDS011;23686;49.828;8.702;2022-11-11T11:02:41;26.75;;;14.48;;
37845;SDS011;23686;49.828;8.702;2022-11-11T11:05:25;25.75;;;16.02;;
37845;SDS011;23686;49.828;8.702;2022-11-11T11:08:05;21.27;;;13.90;;
37845;SDS011;23686;49.828;8.702;2022-11-11T11:10:37;31.42;;;15.85;;
37845;SDS011;23686;49.828;8.702;2022-11-11T11:13:20;27.60;;;14.82;;
37845;SDS011;23686;49.828;8.702;2022-11-11T11:16:04;24.33;;;15.23;;
37845;SDS011;23686;49.828;8.702;2022-11-11T11:18:34;29.50;;;16.45;;
37845;SDS011;23686;49.828;8.702;2022-11-11T11:21:00;22.23;;;15.27;;
37845;SDS011;23686;49.828;8.702;2022-11-11T11:26:08;27.42;;;16.77;;
37845;SDS011;23686;49.828;8.702;2022-11-11T11:28:35;27.60;;;16.92;;
37845;SDS011;23686;49.828;8.702;2022-11-11T11:31:33;30.45;;;18.13;;
37845;SDS011;23686;49.828;8.702;2022-11-11T11:34:01;29.38;;;18.27;;
37845;SDS011;23686;49.828;8.702;2022-11-11T11:36:27;30.35;;;19.27;;
37845;SDS011;23686;49.828;8.702;2022-11-11T11:38:52;30.48;;;18.85;;
37845;SDS011;23686;49.828;8.702;2022-11-11T11:46:51;29.35;;;17.83;;
37845;SDS011;23686;49.828;8.702;2022-11-11T11:52:18;25.70;;;16.55;;
37845;SDS011;23686;49.828;8.702;2022-11-11T11:55:10;26.23;;;15.23;;
37845;SDS011;23686;49.828;8.702;2022-11-11T11:57:49;20.88;;;15.07;;
37845;SDS011;23686;49.828;8.702;2022-11-11T12:19:27;18.77;;;14.15;;
37845;SDS011;23686;49.828;8.702;2022-11-11T12:27:53;22.73;;;15.20;;
37845;SDS011;23686;49.828;8.702;2022-11-11T12:30:31;18.85;;;14.63;;
37845;SDS011;23686;49.828;8.702;2022-11-11T12:35:42;22.13;;;16.15;;
37845;SDS011;23686;49.828;8.702;2022-11-11T12:38:33;21.88;;;15.63;;
37845;SDS011;23686;49.828;8.702;2022-11-11T12:41:13;21.63;;;15.43;;
37845;SDS011;23686;49.828;8.702;2022-11-11T12:44:03;21.50;;;15.50;;
37845;SDS011;23686;49.828;8.702;2022-11-11T12:46:39;21.15;;;15.40;;
37845;SDS011;23686;49.828;8.702;2022-11-11T12:49:33;19.10;;;14.15;;
37845;SDS011;23686;49.828;8.702;2022-11-11T12:55:23;19.33;;;14.43;;
37845;SDS011;23686;49.828;8.702;2022-11-11T13:00:50;21.75;;;15.73;;
37845;SDS011;23686;49.828;8.702;2022-11-11T13:03:46;22.40;;;14.05;;
37845;SDS011;23686;49.828;8.702;2022-11-11T13:09:14;23.52;;;16.48;;
37845;SDS011;23686;49.828;8.702;2022-11-11T13:17:37;26.17;;;16.60;;
37845;SDS011;23686;49.828;8.702;2022-11-11T13:20:05;25.80;;;16.27;;
37845;SDS011;23686;49.828;8.702;2022-11-11T13:22:43;25.65;;;16.25;;
37845;SDS011;23686;49.828;8.702;2022-11-11T13:25:13;23.85;;;16.40;;
37845;SDS011;23686;49.828;8.702;2022-11-11T13:28:02;23.58;;;16.55;;
37845;SDS011;23686;49.828;8.702;2022-11-11T13:31:10;21.23;;;14.68;;
37845;SDS011;23686;49.828;8.702;2022-11-11T13:36:02;21.13;;;15.52;;
37845;SDS011;23686;49.828;8.702;2022-11-11T13:41:04;21.55;;;15.70;;
37845;SDS011;23686;49.828;8.702;2022-11-11T13:46:06;24.42;;;16.70;;
37845;SDS011;23686;49.828;8.702;2022-11-11T13:48:51;24.85;;;16.48;;
37845;SDS011;23686;49.828;8.702;2022-11-11T13:54:27;20.98;;;16.15;;
37845;SDS011;23686;49.828;8.702;2022-11-11T13:56:51;26.08;;;16.52;;
37845;SDS011;23686;49.828;8.702;2022-11-11T13:59:25;21.50;;;16.35;;
37845;SDS011;23686;49.828;8.702;2022-11-11T14:02:12;29.23;;;18.00;;
37845;SDS011;23686;49.828;8.702;2022-11-11T14:12:41;25.05;;;17.98;;
37845;SDS011;23686;49.828;8.702;2022-11-11T14:18:08;37.70;;;23.67;;
37845;SDS011;23686;49.828;8.702;2022-11-11T14:20:44;42.45;;;24.83;;
37845;SDS011;23686;49.828;8.702;2022-11-11T14:23:40;38.25;;;24.15;;
37845;SDS011;23686;49.828;8.702;2022-11-11T14:28:57;40.72;;;23.45;;
37845;SDS011;23686;49.828;8.702;2022-11-11T14:31:27;37.57;;;22.07;;
37845;SDS011;23686;49.828;8.702;2022-11-11T14:34:18;33.30;;;21.60;;
37845;SDS011;23686;49.828;8.702;2022-11-11T14:41:59;45.10;;;26.38;;
37845;SDS011;23686;49.828;8.702;2022-11-11T15:00:19;50.10;;;29.10;;
37845;SDS011;23686;49.828;8.702;2022-11-11T15:05:20;63.20;;;36.13;;
37845;SDS011;23686;49.828;8.702;2022-11-11T15:21:28;47.80;;;24.52;;
37845;SDS011;23686;49.828;8.702;2022-11-11T15:27:00;43.13;;;23.50;;
37845;SDS011;23686;49.828;8.702;2022-11-11T15:37:56;50.50;;;26.23;;
37845;SDS011;23686;49.828;8.702;2022-11-11T15:40:25;55.78;;;25.20;;
37845;SDS011;23686;49.828;8.702;2022-11-11T15:42:54;59.88;;;26.25;;
37845;SDS011;23686;49.828;8.702;2022-11-11T15:45:22;61.65;;;26.52;;
37845;SDS011;23686;49.828;8.702;2022-11-11T15:47:50;73.30;;;27.25;;
37845;SDS011;23686;49.828;8.702;2022-11-11T15:52:54;43.08;;;22.23;;
37845;SDS011;23686;49.828;8.702;2022-11-11T15:55:22;83.95;;;23.52;;
37845;SDS011;23686;49.828;8.702;2022-11-11T15:57:50;50.45;;;23.35;;
37845;SDS011;23686;49.828;8.702;2022-11-11T16:00:25;61.17;;;23.08;;
37845;SDS011;23686;49.828;8.702;2022-11-11T16:02:53;60.50;;;25.20;;
37845;SDS011;23686;49.828;8.702;2022-11-11T16:05:23;62.08;;;23.23;;
37845;SDS011;23686;49.828;8.702;2022-11-11T16:07:51;85.90;;;26.27;;
37845;SDS011;23686;49.828;8.702;2022-11-11T16:10:29;69.78;;;25.92;;
37845;SDS011;23686;49.828;8.702;2022-11-11T16:12:59;79.75;;;27.65;;
37845;SDS011;23686;49.828;8.702;2022-11-11T16:15:44;80.28;;;26.10;;
37845;SDS011;23686;49.828;8.702;2022-11-11T16:18:22;60.35;;;23.08;;
37845;SDS011;23686;49.828;8.702;2022-11-11T16:20:57;74.60;;;23.48;;
37845;SDS011;23686;49.828;8.702;2022-11-11T16:23:27;73.43;;;24.27;;
37845;SDS011;23686;49.828;8.702;2022-11-11T16:25:53;62.15;;;22.88;;
37845;SDS011;23686;49.828;8.702;2022-11-11T16:28:22;87.25;;;25.70;;
37845;SDS011;23686;49.828;8.702;2022-11-11T16:30:48;86.07;;;23.38;;
37845;SDS011;23686;49.828;8.702;2022-11-11T16:33:47;94.40;;;25.55;;
37845;SDS011;23686;49.828;8.702;2022-11-11T16:36:06;55.03;;;27.90;;
37845;SDS011;23686;49.828;8.702;2022-11-11T16:38:33;87.53;;;25.85;;
37845;SDS011;23686;49.828;8.702;2022-11-11T16:40:59;84.85;;;24.58;;
37845;SDS011;23686;49.828;8.702;2022-11-11T16:43:32;94.15;;;25.98;;
37845;SDS011;23686;49.828;8.702;2022-11-11T16:51:07;53.60;;;22.02;;
37845;SDS011;23686;49.828;8.702;2022-11-11T16:53:37;44.20;;;21.20;;
37845;SDS011;23686;49.828;8.702;2022-11-11T16:56:20;71.28;;;23.48;;
37845;SDS011;23686;49.828;8.702;2022-11-11T16:58:54;58.47;;;23.33;;
37845;SDS011;23686;49.828;8.702;2022-11-11T17:01:24;52.35;;;21.23;;
37845;SDS011;23686;49.828;8.702;2022-11-11T17:03:54;55.25;;;24.38;;
37845;SDS011;23686;49.828;8.702;2022-11-11T17:06:44;52.08;;;23.38;;
37845;SDS011;23686;49.828;8.702;2022-11-11T17:09:26;61.40;;;23.83;;
37845;SDS011;23686;49.828;8.702;2022-11-11T17:12:02;54.63;;;23.08;;
37845;SDS011;23686;49.828;8.702;2022-11-11T17:14:30;67.28;;;25.92;;
37845;SDS011;23686;49.828;8.702;2022-11-11T17:16:58;76.43;;;28.00;;
37845;SDS011;23686;49.828;8.702;2022-11-11T17:19:24;47.72;;;22.65;;
37845;SDS011;23686;49.828;8.702;2022-11-11T17:21:50;42.75;;;23.13;;
37845;SDS011;23686;49.828;8.702;2022-11-11T17:24:15;52.58;;;22.50;;
37845;SDS011;23686;49.828;8.702;2022-11-11T17:26:41;66.47;;;23.13;;
37845;SDS011;23686;49.828;8.702;2022-11-11T17:29:07;60.58;;;21.13;;
37845;SDS011;23686;49.828;8.702;2022-11-11T17:31:34;47.45;;;21.55;;
37845;SDS011;23686;49.828;8.702;2022-11-11T17:34:05;51.83;;;21.40;;
37845;SDS011;23686;49.828;8.702;2022-11-11T17:36:32;44.28;;;20.65;;
37845;SDS011;23686;49.828;8.702;2022-11-11T17:38:57;39.60;;;23.08;;
37845;SDS011;23686;49.828;8.702;2022-11-11T17:41:23;49.92;;;21.27;;
37845;SDS011;23686;49.828;8.702;2022-11-11T17:43:48;40.17;;;22.05;;
37845;SDS011;23686;49.828;8.702;2022-11-11T17:46:14;42.08;;;22.80;;
37845;SDS011;23686;49.828;8.702;2022-11-11T17:48:39;47.15;;;20.20;;